sensor_id;sensor_type;location;lat;lon;timestamp;temperature;humidity
36132;DHT22;22185;48.738;9.324;2022-11-20T00:01:18;6.40;99.90
36132;DHT22;22185;48.738;9.324;2022-11-20T00:03:20;6.40;99.90
36132;DHT22;22185;48.738;9.324;2022-11-20T00:05:22;6.40;99.90
36132;DHT22;22185;48.738;9.324;2022-11-20T00:07:23;6.60;99.90
36132;DHT22;22185;48.738;9.324;2022-11-20T00:09:25;6.50;99.90
36132;DHT22;22185;48.738;9.324;2022-11-20T00:11:28;6.40;99.90
36132;DHT22;22185;48.738;9.324;2022-11-20T00:13:30;6.40;99.90
36132;DHT22;22185;48.738;9.324;2022-11-20T00:15:31;6.30;99.90
36132;DHT22;22185;48.738;9.324;2022-11-20T00:17:33;6.20;99.90
36132;DHT22;22185;48.738;9.324;2022-11-20T00:19:35;6.20;99.90
36132;DHT22;22185;48.738;9.324;2022-11-20T00:21:36;6.10;99.90
36132;DHT22;22185;48.738;9.324;2022-11-20T00:23:38;6.20;99.90
36132;DHT22;22185;48.738;9.324;2022-11-20T00:25:40;6.20;99.90
36132;DHT22;22185;48.738;9.324;2022-11-20T00:27:42;6.20;99.90
36132;DHT22;22185;48.738;9.324;2022-11-20T00:29:44;6.20;99.90
36132;DHT22;22185;48.738;9.324;2022-11-20T00:31:46;6.20;99.90
36132;DHT22;22185;48.738;9.324;2022-11-20T00:33:48;6.20;99.90
36132;DHT22;22185;48.738;9.324;2022-11-20T00:35:50;6.20;99.90
36132;DHT22;22185;48.738;9.324;2022-11-20T00:37:51;6.30;99.90
36132;DHT22;22185;48.738;9.324;2022-11-20T00:39:53;6.20;99.90
36132;DHT22;22185;48.738;9.324;2022-11-20T00:41:58;6.20;99.90
36132;DHT22;22185;48.738;9.324;2022-11-20T00:43:59;6.30;99.90
36132;DHT22;22185;48.738;9.324;2022-11-20T00:46:12;6.20;99.90
36132;DHT22;22185;48.738;9.324;2022-11-20T00:48:14;6.30;99.90
36132;DHT22;22185;48.738;9.324;2022-11-20T00:50:15;6.20;99.90
36132;DHT22;22185;48.738;9.324;2022-11-20T00:52:17;6.30;99.90
36132;DHT22;22185;48.738;9.324;2022-11-20T00:54:19;6.20;99.90
36132;DHT22;22185;48.738;9.324;2022-11-20T00:56:20;6.30;99.90
36132;DHT22;22185;48.738;9.324;2022-11-20T00:58:22;6.30;99.90
36132;DHT22;22185;48.738;9.324;2022-11-20T01:00:24;6.40;99.90
36132;DHT22;22185;48.738;9.324;2022-11-20T01:02:26;6.40;99.90
36132;DHT22;22185;48.738;9.324;2022-11-20T01:04:27;6.50;99.90
36132;DHT22;22185;48.738;9.324;2022-11-20T01:06:31;6.50;99.90
36132;DHT22;22185;48.738;9.324;2022-11-20T01:08:33;6.40;99.90
36132;DHT22;22185;48.738;9.324;2022-11-20T01:10:35;6.30;99.90
36132;DHT22;22185;48.738;9.324;2022-11-20T01:12:37;6.30;99.90
36132;DHT22;22185;48.738;9.324;2022-11-20T01:14:38;6.30;99.90
36132;DHT22;22185;48.738;9.324;2022-11-20T01:16:41;6.20;99.90
36132;DHT22;22185;48.738;9.324;2022-11-20T01:18:44;6.20;99.90
36132;DHT22;22185;48.738;9.324;2022-11-20T01:20:46;6.40;99.90
36132;DHT22;22185;48.738;9.324;2022-11-20T01:22:48;6.30;99.90
36132;DHT22;22185;48.738;9.324;2022-11-20T01:24:49;6.50;99.90
36132;DHT22;22185;48.738;9.324;2022-11-20T01:26:52;6.50;99.90
36132;DHT22;22185;48.738;9.324;2022-11-20T01:28:54;6.40;99.90
36132;DHT22;22185;48.738;9.324;2022-11-20T01:30:57;6.60;99.90
36132;DHT22;22185;48.738;9.324;2022-11-20T01:32:58;6.50;99.90
36132;DHT22;22185;48.738;9.324;2022-11-20T01:35:00;6.50;99.90
36132;DHT22;22185;48.738;9.324;2022-11-20T01:37:02;6.50;99.90
36132;DHT22;22185;48.738;9.324;2022-11-20T01:39:05;6.50;99.90
36132;DHT22;22185;48.738;9.324;2022-11-20T01:41:07;6.50;99.90
36132;DHT22;22185;48.738;9.324;2022-11-20T01:43:13;6.50;99.90
36132;DHT22;22185;48.738;9.324;2022-11-20T01:47:45;6.50;99.90
36132;DHT22;22185;48.738;9.324;2022-11-20T01:49:52;6.50;99.90
36132;DHT22;22185;48.738;9.324;2022-11-20T01:51:56;6.50;99.90
36132;DHT22;22185;48.738;9.324;2022-11-20T01:54:00;6.50;99.90
36132;DHT22;22185;48.738;9.324;2022-11-20T01:56:04;6.40;99.90
36132;DHT22;22185;48.738;9.324;2022-11-20T01:58:07;6.50;99.90
36132;DHT22;22185;48.738;9.324;2022-11-20T02:00:10;6.30;99.90
36132;DHT22;22185;48.738;9.324;2022-11-20T02:02:12;6.30;99.90
36132;DHT22;22185;48.738;9.324;2022-11-20T02:04:14;6.40;99.90
36132;DHT22;22185;48.738;9.324;2022-11-20T02:06:19;6.20;99.90
36132;DHT22;22185;48.738;9.324;2022-11-20T02:08:23;6.30;99.90
36132;DHT22;22185;48.738;9.324;2022-11-20T02:10:26;6.20;99.90
36132;DHT22;22185;48.738;9.324;2022-11-20T02:12:28;6.30;99.90
36132;DHT22;22185;48.738;9.324;2022-11-20T02:15:04;6.10;99.90
36132;DHT22;22185;48.738;9.324;2022-11-20T02:17:06;6.10;99.90
36132;DHT22;22185;48.738;9.324;2022-11-20T02:19:13;6.10;99.90
36132;DHT22;22185;48.738;9.324;2022-11-20T02:21:27;6.30;99.90
36132;DHT22;22185;48.738;9.324;2022-11-20T02:23:36;6.30;99.90
36132;DHT22;22185;48.738;9.324;2022-11-20T02:25:39;6.10;99.90
36132;DHT22;22185;48.738;9.324;2022-11-20T02:27:42;6.00;99.90
36132;DHT22;22185;48.738;9.324;2022-11-20T02:29:46;6.00;99.90
36132;DHT22;22185;48.738;9.324;2022-11-20T02:31:48;6.10;99.90
36132;DHT22;22185;48.738;9.324;2022-11-20T02:33:56;6.00;99.90
36132;DHT22;22185;48.738;9.324;2022-11-20T02:35:58;6.00;99.90
36132;DHT22;22185;48.738;9.324;2022-11-20T02:38:01;6.00;99.90
36132;DHT22;22185;48.738;9.324;2022-11-20T02:40:03;6.20;99.90
36132;DHT22;22185;48.738;9.324;2022-11-20T02:42:05;6.20;99.90
36132;DHT22;22185;48.738;9.324;2022-11-20T02:44:07;6.30;99.90
36132;DHT22;22185;48.738;9.324;2022-11-20T02:46:09;6.10;99.90
36132;DHT22;22185;48.738;9.324;2022-11-20T02:48:10;6.10;99.90
36132;DHT22;22185;48.738;9.324;2022-11-20T02:50:12;6.10;99.90
36132;DHT22;22185;48.738;9.324;2022-11-20T02:52:14;6.00;99.90
36132;DHT22;22185;48.738;9.324;2022-11-20T02:54:15;6.10;99.90
36132;DHT22;22185;48.738;9.324;2022-11-20T02:56:17;6.10;99.90
36132;DHT22;22185;48.738;9.324;2022-11-20T02:58:19;6.20;99.90
36132;DHT22;22185;48.738;9.324;2022-11-20T03:00:20;6.10;99.90
36132;DHT22;22185;48.738;9.324;2022-11-20T03:02:31;6.10;99.90
36132;DHT22;22185;48.738;9.324;2022-11-20T03:04:33;6.10;99.90
36132;DHT22;22185;48.738;9.324;2022-11-20T03:06:35;6.00;99.90
36132;DHT22;22185;48.738;9.324;2022-11-20T03:08:36;5.90;99.90
36132;DHT22;22185;48.738;9.324;2022-11-20T03:10:38;5.90;99.90
36132;DHT22;22185;48.738;9.324;2022-11-20T03:12:40;6.00;99.90
36132;DHT22;22185;48.738;9.324;2022-11-20T03:14:41;6.10;99.90
36132;DHT22;22185;48.738;9.324;2022-11-20T03:16:43;6.20;99.90
36132;DHT22;22185;48.738;9.324;2022-11-20T03:18:45;6.20;99.90
36132;DHT22;22185;48.738;9.324;2022-11-20T03:20:47;6.20;99.90
36132;DHT22;22185;48.738;9.324;2022-11-20T03:22:49;6.10;99.90
36132;DHT22;22185;48.738;9.324;2022-11-20T03:24:50;6.00;99.90
36132;DHT22;22185;48.738;9.324;2022-11-20T03:26:55;6.00;99.90
36132;DHT22;22185;48.738;9.324;2022-11-20T03:28:57;6.20;99.90
36132;DHT22;22185;48.738;9.324;2022-11-20T03:31:04;6.30;99.90
36132;DHT22;22185;48.738;9.324;2022-11-20T03:33:06;6.30;99.90
36132;DHT22;22185;48.738;9.324;2022-11-20T03:35:08;6.20;99.90
36132;DHT22;22185;48.738;9.324;2022-11-20T03:37:09;6.20;99.90
36132;DHT22;22185;48.738;9.324;2022-11-20T03:39:11;6.30;99.90
36132;DHT22;22185;48.738;9.324;2022-11-20T03:41:14;6.30;99.90
36132;DHT22;22185;48.738;9.324;2022-11-20T03:43:16;6.30;99.90
36132;DHT22;22185;48.738;9.324;2022-11-20T03:45:18;6.40;99.90
36132;DHT22;22185;48.738;9.324;2022-11-20T03:47:20;6.30;99.90
36132;DHT22;22185;48.738;9.324;2022-11-20T03:49:22;6.30;99.90
36132;DHT22;22185;48.738;9.324;2022-11-20T03:53:25;6.20;99.90
36132;DHT22;22185;48.738;9.324;2022-11-20T03:55:27;6.20;99.90
36132;DHT22;22185;48.738;9.324;2022-11-20T03:57:28;6.10;99.90
36132;DHT22;22185;48.738;9.324;2022-11-20T03:59:30;6.10;99.90
36132;DHT22;22185;48.738;9.324;2022-11-20T04:01:33;6.10;99.90
36132;DHT22;22185;48.738;9.324;2022-11-20T04:03:35;6.10;99.90
36132;DHT22;22185;48.738;9.324;2022-11-20T04:05:37;6.10;99.90
36132;DHT22;22185;48.738;9.324;2022-11-20T04:07:39;6.10;99.90
36132;DHT22;22185;48.738;9.324;2022-11-20T04:09:43;6.10;99.90
36132;DHT22;22185;48.738;9.324;2022-11-20T04:11:47;6.20;99.90
36132;DHT22;22185;48.738;9.324;2022-11-20T04:13:50;6.20;99.90
36132;DHT22;22185;48.738;9.324;2022-11-20T04:15:52;6.20;99.90
36132;DHT22;22185;48.738;9.324;2022-11-20T04:17:58;6.20;99.90
36132;DHT22;22185;48.738;9.324;2022-11-20T04:20:00;6.20;99.90
36132;DHT22;22185;48.738;9.324;2022-11-20T04:22:01;6.20;99.90
36132;DHT22;22185;48.738;9.324;2022-11-20T04:24:03;6.20;99.90
36132;DHT22;22185;48.738;9.324;2022-11-20T04:26:06;6.30;99.90
36132;DHT22;22185;48.738;9.324;2022-11-20T04:28:08;6.30;99.90
36132;DHT22;22185;48.738;9.324;2022-11-20T04:30:10;6.30;99.90
36132;DHT22;22185;48.738;9.324;2022-11-20T04:32:12;6.30;99.90
36132;DHT22;22185;48.738;9.324;2022-11-20T04:34:14;6.30;99.90
36132;DHT22;22185;48.738;9.324;2022-11-20T04:36:19;6.30;99.90
36132;DHT22;22185;48.738;9.324;2022-11-20T04:38:21;6.30;99.90
36132;DHT22;22185;48.738;9.324;2022-11-20T04:40:23;6.30;99.90
36132;DHT22;22185;48.738;9.324;2022-11-20T04:42:25;6.30;99.90
36132;DHT22;22185;48.738;9.324;2022-11-20T04:44:32;6.30;99.90
36132;DHT22;22185;48.738;9.324;2022-11-20T04:46:35;6.20;99.90
36132;DHT22;22185;48.738;9.324;2022-11-20T04:48:37;6.20;99.90
36132;DHT22;22185;48.738;9.324;2022-11-20T04:50:39;6.20;99.90
36132;DHT22;22185;48.738;9.324;2022-11-20T04:52:41;6.20;99.90
36132;DHT22;22185;48.738;9.324;2022-11-20T04:54:43;6.20;99.90
36132;DHT22;22185;48.738;9.324;2022-11-20T04:56:44;6.20;99.90
36132;DHT22;22185;48.738;9.324;2022-11-20T04:58:46;6.20;99.90
36132;DHT22;22185;48.738;9.324;2022-11-20T05:00:48;6.20;99.90
36132;DHT22;22185;48.738;9.324;2022-11-20T05:02:53;6.20;99.90
36132;DHT22;22185;48.738;9.324;2022-11-20T05:04:54;6.20;99.90
36132;DHT22;22185;48.738;9.324;2022-11-20T05:06:56;6.20;99.90
36132;DHT22;22185;48.738;9.324;2022-11-20T05:08:58;6.30;99.90
36132;DHT22;22185;48.738;9.324;2022-11-20T05:11:03;6.20;99.90
36132;DHT22;22185;48.738;9.324;2022-11-20T05:13:05;6.20;99.90
36132;DHT22;22185;48.738;9.324;2022-11-20T05:15:09;6.30;99.90
36132;DHT22;22185;48.738;9.324;2022-11-20T05:17:19;6.30;99.90
36132;DHT22;22185;48.738;9.324;2022-11-20T05:19:21;6.30;99.90
36132;DHT22;22185;48.738;9.324;2022-11-20T05:21:23;6.20;99.90
36132;DHT22;22185;48.738;9.324;2022-11-20T05:23:25;6.20;99.90
36132;DHT22;22185;48.738;9.324;2022-11-20T05:25:27;6.30;99.90
36132;DHT22;22185;48.738;9.324;2022-11-20T05:27:29;6.20;99.90
36132;DHT22;22185;48.738;9.324;2022-11-20T05:29:31;6.20;99.90
36132;DHT22;22185;48.738;9.324;2022-11-20T05:31:32;6.30;99.90
36132;DHT22;22185;48.738;9.324;2022-11-20T05:33:34;6.30;99.90
36132;DHT22;22185;48.738;9.324;2022-11-20T05:35:37;6.30;99.90
36132;DHT22;22185;48.738;9.324;2022-11-20T05:37:38;6.30;99.90
36132;DHT22;22185;48.738;9.324;2022-11-20T05:39:40;6.40;99.90
36132;DHT22;22185;48.738;9.324;2022-11-20T05:41:42;6.40;99.90
36132;DHT22;22185;48.738;9.324;2022-11-20T05:43:44;6.50;99.90
36132;DHT22;22185;48.738;9.324;2022-11-20T05:45:52;6.40;99.90
36132;DHT22;22185;48.738;9.324;2022-11-20T05:47:57;6.40;99.90
36132;DHT22;22185;48.738;9.324;2022-11-20T05:49:58;6.50;99.90
36132;DHT22;22185;48.738;9.324;2022-11-20T05:52:00;6.40;99.90
36132;DHT22;22185;48.738;9.324;2022-11-20T05:54:02;6.40;99.90
36132;DHT22;22185;48.738;9.324;2022-11-20T05:56:05;6.50;99.90
36132;DHT22;22185;48.738;9.324;2022-11-20T05:58:13;6.50;99.90
36132;DHT22;22185;48.738;9.324;2022-11-20T06:00:15;6.50;99.90
36132;DHT22;22185;48.738;9.324;2022-11-20T06:02:17;6.50;99.90
36132;DHT22;22185;48.738;9.324;2022-11-20T06:04:18;6.50;99.90
36132;DHT22;22185;48.738;9.324;2022-11-20T06:06:20;6.50;99.90
36132;DHT22;22185;48.738;9.324;2022-11-20T06:08:22;6.60;99.90
36132;DHT22;22185;48.738;9.324;2022-11-20T06:10:24;6.60;99.90
36132;DHT22;22185;48.738;9.324;2022-11-20T06:12:26;6.50;99.90
36132;DHT22;22185;48.738;9.324;2022-11-20T06:14:28;6.60;99.90
36132;DHT22;22185;48.738;9.324;2022-11-20T06:16:32;6.60;99.90
36132;DHT22;22185;48.738;9.324;2022-11-20T06:18:33;6.60;99.90
36132;DHT22;22185;48.738;9.324;2022-11-20T06:20:35;6.60;99.90
36132;DHT22;22185;48.738;9.324;2022-11-20T06:22:42;6.60;99.90
36132;DHT22;22185;48.738;9.324;2022-11-20T06:24:44;6.60;99.90
36132;DHT22;22185;48.738;9.324;2022-11-20T06:26:46;6.50;99.90
36132;DHT22;22185;48.738;9.324;2022-11-20T06:28:47;6.50;99.90
36132;DHT22;22185;48.738;9.324;2022-11-20T06:30:49;6.50;99.90
36132;DHT22;22185;48.738;9.324;2022-11-20T06:32:51;6.50;99.90
36132;DHT22;22185;48.738;9.324;2022-11-20T06:34:53;6.50;99.90
36132;DHT22;22185;48.738;9.324;2022-11-20T06:36:54;6.60;99.90
36132;DHT22;22185;48.738;9.324;2022-11-20T06:38:56;6.60;99.90
36132;DHT22;22185;48.738;9.324;2022-11-20T06:40:57;6.60;99.90
36132;DHT22;22185;48.738;9.324;2022-11-20T06:42:59;6.50;99.90
36132;DHT22;22185;48.738;9.324;2022-11-20T06:45:01;6.50;99.90
36132;DHT22;22185;48.738;9.324;2022-11-20T06:47:23;6.50;99.90
36132;DHT22;22185;48.738;9.324;2022-11-20T06:49:24;6.60;99.90
36132;DHT22;22185;48.738;9.324;2022-11-20T06:51:27;6.60;99.90
36132;DHT22;22185;48.738;9.324;2022-11-20T06:53:28;6.60;99.90
36132;DHT22;22185;48.738;9.324;2022-11-20T06:55:30;6.60;99.90
36132;DHT22;22185;48.738;9.324;2022-11-20T06:57:32;6.60;99.90
36132;DHT22;22185;48.738;9.324;2022-11-20T06:59:34;6.60;99.90
36132;DHT22;22185;48.738;9.324;2022-11-20T07:01:36;6.60;99.90
36132;DHT22;22185;48.738;9.324;2022-11-20T07:03:38;6.60;99.90
36132;DHT22;22185;48.738;9.324;2022-11-20T07:05:40;6.60;99.90
36132;DHT22;22185;48.738;9.324;2022-11-20T07:07:42;6.50;99.90
36132;DHT22;22185;48.738;9.324;2022-11-20T07:09:44;6.50;99.90
36132;DHT22;22185;48.738;9.324;2022-11-20T07:11:45;6.60;99.90
36132;DHT22;22185;48.738;9.324;2022-11-20T07:13:47;6.60;99.90
36132;DHT22;22185;48.738;9.324;2022-11-20T07:15:49;6.60;99.90
36132;DHT22;22185;48.738;9.324;2022-11-20T07:17:50;6.50;99.90
36132;DHT22;22185;48.738;9.324;2022-11-20T07:19:52;6.50;99.90
36132;DHT22;22185;48.738;9.324;2022-11-20T07:21:54;6.60;99.90
36132;DHT22;22185;48.738;9.324;2022-11-20T07:23:56;6.50;99.90
36132;DHT22;22185;48.738;9.324;2022-11-20T07:26:01;6.70;99.90
36132;DHT22;22185;48.738;9.324;2022-11-20T07:28:05;6.70;99.90
36132;DHT22;22185;48.738;9.324;2022-11-20T07:30:07;6.70;99.90
36132;DHT22;22185;48.738;9.324;2022-11-20T07:32:09;6.70;99.90
36132;DHT22;22185;48.738;9.324;2022-11-20T07:34:10;6.70;99.90
36132;DHT22;22185;48.738;9.324;2022-11-20T07:36:12;6.80;99.90
36132;DHT22;22185;48.738;9.324;2022-11-20T07:38:14;6.70;99.90
36132;DHT22;22185;48.738;9.324;2022-11-20T07:40:16;6.80;99.90
36132;DHT22;22185;48.738;9.324;2022-11-20T07:42:17;6.90;99.90
36132;DHT22;22185;48.738;9.324;2022-11-20T07:44:19;6.90;99.90
36132;DHT22;22185;48.738;9.324;2022-11-20T07:46:21;7.00;99.90
36132;DHT22;22185;48.738;9.324;2022-11-20T07:48:23;7.00;99.90
36132;DHT22;22185;48.738;9.324;2022-11-20T07:50:24;7.00;99.90
36132;DHT22;22185;48.738;9.324;2022-11-20T07:52:26;7.00;99.90
36132;DHT22;22185;48.738;9.324;2022-11-20T07:54:29;7.00;99.90
36132;DHT22;22185;48.738;9.324;2022-11-20T07:56:30;7.10;99.90
36132;DHT22;22185;48.738;9.324;2022-11-20T07:58:32;7.20;99.90
36132;DHT22;22185;48.738;9.324;2022-11-20T08:00:35;7.20;99.90
36132;DHT22;22185;48.738;9.324;2022-11-20T08:02:38;7.10;99.90
36132;DHT22;22185;48.738;9.324;2022-11-20T08:04:40;7.00;99.90
36132;DHT22;22185;48.738;9.324;2022-11-20T08:06:42;7.00;99.90
36132;DHT22;22185;48.738;9.324;2022-11-20T08:08:44;7.10;99.90
36132;DHT22;22185;48.738;9.324;2022-11-20T08:10:45;7.00;99.90
36132;DHT22;22185;48.738;9.324;2022-11-20T08:12:50;7.10;99.90
36132;DHT22;22185;48.738;9.324;2022-11-20T08:15:13;7.20;99.90
36132;DHT22;22185;48.738;9.324;2022-11-20T08:17:15;7.20;99.90
36132;DHT22;22185;48.738;9.324;2022-11-20T08:19:18;7.20;99.90
36132;DHT22;22185;48.738;9.324;2022-11-20T08:21:20;7.20;99.90
36132;DHT22;22185;48.738;9.324;2022-11-20T08:23:22;7.20;99.90
36132;DHT22;22185;48.738;9.324;2022-11-20T08:25:24;7.20;99.90
36132;DHT22;22185;48.738;9.324;2022-11-20T08:27:25;7.20;99.90
36132;DHT22;22185;48.738;9.324;2022-11-20T08:29:27;7.20;99.90
36132;DHT22;22185;48.738;9.324;2022-11-20T08:31:29;7.20;99.90
36132;DHT22;22185;48.738;9.324;2022-11-20T08:33:31;7.20;99.90
36132;DHT22;22185;48.738;9.324;2022-11-20T08:35:37;7.30;99.90
36132;DHT22;22185;48.738;9.324;2022-11-20T08:37:39;7.30;99.90
36132;DHT22;22185;48.738;9.324;2022-11-20T08:39:42;7.30;99.90
36132;DHT22;22185;48.738;9.324;2022-11-20T08:41:44;7.40;99.90
36132;DHT22;22185;48.738;9.324;2022-11-20T08:43:46;7.40;99.90
36132;DHT22;22185;48.738;9.324;2022-11-20T08:45:47;7.40;99.90
36132;DHT22;22185;48.738;9.324;2022-11-20T08:47:49;7.30;99.90
36132;DHT22;22185;48.738;9.324;2022-11-20T08:49:51;7.30;99.90
36132;DHT22;22185;48.738;9.324;2022-11-20T08:51:52;7.30;99.90
36132;DHT22;22185;48.738;9.324;2022-11-20T08:53:56;7.40;99.90
36132;DHT22;22185;48.738;9.324;2022-11-20T08:55:58;7.40;99.90
36132;DHT22;22185;48.738;9.324;2022-11-20T08:58:03;7.40;99.90
36132;DHT22;22185;48.738;9.324;2022-11-20T09:00:05;7.40;99.90
36132;DHT22;22185;48.738;9.324;2022-11-20T09:02:08;7.40;99.90
36132;DHT22;22185;48.738;9.324;2022-11-20T09:04:09;7.40;99.90
36132;DHT22;22185;48.738;9.324;2022-11-20T09:06:13;7.50;99.90
36132;DHT22;22185;48.738;9.324;2022-11-20T09:08:15;7.60;99.90
36132;DHT22;22185;48.738;9.324;2022-11-20T09:10:16;7.70;99.90
36132;DHT22;22185;48.738;9.324;2022-11-20T09:12:25;7.70;99.90
36132;DHT22;22185;48.738;9.324;2022-11-20T09:14:27;7.90;99.90
36132;DHT22;22185;48.738;9.324;2022-11-20T09:16:31;7.80;99.90
36132;DHT22;22185;48.738;9.324;2022-11-20T09:18:33;7.90;99.90
36132;DHT22;22185;48.738;9.324;2022-11-20T09:20:37;7.90;99.90
36132;DHT22;22185;48.738;9.324;2022-11-20T09:22:39;7.90;99.90
36132;DHT22;22185;48.738;9.324;2022-11-20T09:24:41;7.80;99.90
36132;DHT22;22185;48.738;9.324;2022-11-20T09:26:44;7.80;99.90
36132;DHT22;22185;48.738;9.324;2022-11-20T09:28:45;7.80;99.90
36132;DHT22;22185;48.738;9.324;2022-11-20T09:30:47;7.80;99.90
36132;DHT22;22185;48.738;9.324;2022-11-20T09:32:49;7.80;99.90
36132;DHT22;22185;48.738;9.324;2022-11-20T09:34:50;7.80;99.90
36132;DHT22;22185;48.738;9.324;2022-11-20T09:36:52;7.90;99.90
36132;DHT22;22185;48.738;9.324;2022-11-20T09:38:56;7.90;99.90
36132;DHT22;22185;48.738;9.324;2022-11-20T09:41:02;7.80;99.90
36132;DHT22;22185;48.738;9.324;2022-11-20T09:43:11;7.80;99.90
36132;DHT22;22185;48.738;9.324;2022-11-20T09:51:59;7.90;99.90
36132;DHT22;22185;48.738;9.324;2022-11-20T09:54:11;7.90;99.90
36132;DHT22;22185;48.738;9.324;2022-11-20T09:56:15;7.90;99.90
36132;DHT22;22185;48.738;9.324;2022-11-20T10:00:23;7.90;99.90
36132;DHT22;22185;48.738;9.324;2022-11-20T10:04:26;8.00;99.90
36132;DHT22;22185;48.738;9.324;2022-11-20T10:06:37;8.00;99.90
36132;DHT22;22185;48.738;9.324;2022-11-20T10:08:44;8.00;99.90
36132;DHT22;22185;48.738;9.324;2022-11-20T10:10:49;8.00;99.90
36132;DHT22;22185;48.738;9.324;2022-11-20T10:15:12;8.10;99.90
36132;DHT22;22185;48.738;9.324;2022-11-20T10:17:42;8.10;99.90
36132;DHT22;22185;48.738;9.324;2022-11-20T10:19:57;8.10;99.90
36132;DHT22;22185;48.738;9.324;2022-11-20T10:24:28;8.10;99.90
36132;DHT22;22185;48.738;9.324;2022-11-20T10:31:08;8.00;99.90
36132;DHT22;22185;48.738;9.324;2022-11-20T10:33:19;8.00;99.90
36132;DHT22;22185;48.738;9.324;2022-11-20T10:35:34;8.10;99.90
36132;DHT22;22185;48.738;9.324;2022-11-20T10:37:37;8.00;99.90
36132;DHT22;22185;48.738;9.324;2022-11-20T10:39:53;8.00;99.90
36132;DHT22;22185;48.738;9.324;2022-11-20T10:41:57;8.00;99.90
36132;DHT22;22185;48.738;9.324;2022-11-20T10:44:01;8.00;99.90
36132;DHT22;22185;48.738;9.324;2022-11-20T10:46:06;7.90;99.90
36132;DHT22;22185;48.738;9.324;2022-11-20T10:48:11;7.90;99.90
36132;DHT22;22185;48.738;9.324;2022-11-20T10:50:15;7.90;99.90
36132;DHT22;22185;48.738;9.324;2022-11-20T10:56:52;7.70;99.90
36132;DHT22;22185;48.738;9.324;2022-11-20T11:01:16;7.60;99.90
36132;DHT22;22185;48.738;9.324;2022-11-20T11:05:36;7.60;99.90
36132;DHT22;22185;48.738;9.324;2022-11-20T11:07:39;7.60;99.90
36132;DHT22;22185;48.738;9.324;2022-11-20T11:09:43;7.60;99.90
36132;DHT22;22185;48.738;9.324;2022-11-20T11:11:45;7.60;99.90
36132;DHT22;22185;48.738;9.324;2022-11-20T11:13:47;7.60;99.90
36132;DHT22;22185;48.738;9.324;2022-11-20T11:15:48;7.60;99.90
36132;DHT22;22185;48.738;9.324;2022-11-20T11:17:52;7.60;99.90
36132;DHT22;22185;48.738;9.324;2022-11-20T11:20:01;7.60;99.90
36132;DHT22;22185;48.738;9.324;2022-11-20T11:22:03;7.60;99.90
36132;DHT22;22185;48.738;9.324;2022-11-20T11:24:19;7.60;99.90
36132;DHT22;22185;48.738;9.324;2022-11-20T11:26:50;7.60;99.90
36132;DHT22;22185;48.738;9.324;2022-11-20T11:28:59;7.70;99.90
36132;DHT22;22185;48.738;9.324;2022-11-20T11:31:01;7.70;99.90
36132;DHT22;22185;48.738;9.324;2022-11-20T11:33:03;7.70;99.90
36132;DHT22;22185;48.738;9.324;2022-11-20T11:35:06;7.70;99.90
36132;DHT22;22185;48.738;9.324;2022-11-20T11:37:16;7.80;99.90
36132;DHT22;22185;48.738;9.324;2022-11-20T11:39:19;7.80;99.90
36132;DHT22;22185;48.738;9.324;2022-11-20T11:41:30;8.00;99.90
36132;DHT22;22185;48.738;9.324;2022-11-20T11:43:34;8.10;99.90
36132;DHT22;22185;48.738;9.324;2022-11-20T11:45:55;8.20;99.90
36132;DHT22;22185;48.738;9.324;2022-11-20T11:47:57;8.30;99.90
36132;DHT22;22185;48.738;9.324;2022-11-20T11:50:13;8.40;99.90
36132;DHT22;22185;48.738;9.324;2022-11-20T11:52:17;8.50;99.90
36132;DHT22;22185;48.738;9.324;2022-11-20T11:56:30;8.70;99.90
36132;DHT22;22185;48.738;9.324;2022-11-20T11:58:50;9.20;99.90
36132;DHT22;22185;48.738;9.324;2022-11-20T12:01:36;9.10;99.90
36132;DHT22;22185;48.738;9.324;2022-11-20T12:03:19;9.00;99.90
36132;DHT22;22185;48.738;9.324;2022-11-20T12:05:24;8.70;99.90
36132;DHT22;22185;48.738;9.324;2022-11-20T12:07:31;9.10;99.90
36132;DHT22;22185;48.738;9.324;2022-11-20T12:09:53;9.20;99.90
36132;DHT22;22185;48.738;9.324;2022-11-20T12:11:59;9.90;99.90
36132;DHT22;22185;48.738;9.324;2022-11-20T12:14:27;9.80;99.90
36132;DHT22;22185;48.738;9.324;2022-11-20T12:16:35;9.50;99.90
36132;DHT22;22185;48.738;9.324;2022-11-20T12:18:38;9.60;99.90
36132;DHT22;22185;48.738;9.324;2022-11-20T12:20:41;9.40;99.90
36132;DHT22;22185;48.738;9.324;2022-11-20T12:22:54;9.30;99.90
36132;DHT22;22185;48.738;9.324;2022-11-20T12:24:59;9.40;99.90
36132;DHT22;22185;48.738;9.324;2022-11-20T12:27:27;9.30;99.90
36132;DHT22;22185;48.738;9.324;2022-11-20T12:29:40;9.30;99.90
36132;DHT22;22185;48.738;9.324;2022-11-20T12:42:46;10.60;99.90
36132;DHT22;22185;48.738;9.324;2022-11-20T12:45:14;10.60;99.90
36132;DHT22;22185;48.738;9.324;2022-11-20T12:56:24;10.00;99.90
36132;DHT22;22185;48.738;9.324;2022-11-20T13:00:29;10.20;99.90
36132;DHT22;22185;48.738;9.324;2022-11-20T13:02:44;10.00;99.90
36132;DHT22;22185;48.738;9.324;2022-11-20T13:06:50;9.80;99.90
36132;DHT22;22185;48.738;9.324;2022-11-20T13:08:55;9.90;99.90
36132;DHT22;22185;48.738;9.324;2022-11-20T13:11:11;10.30;99.90
36132;DHT22;22185;48.738;9.324;2022-11-20T13:17:51;10.10;99.90
36132;DHT22;22185;48.738;9.324;2022-11-20T13:19:54;10.80;99.90
36132;DHT22;22185;48.738;9.324;2022-11-20T13:21:57;10.60;99.90
36132;DHT22;22185;48.738;9.324;2022-11-20T13:24:20;10.50;99.90
36132;DHT22;22185;48.738;9.324;2022-11-20T13:26:25;10.20;99.90
36132;DHT22;22185;48.738;9.324;2022-11-20T13:28:27;9.90;99.90
36132;DHT22;22185;48.738;9.324;2022-11-20T13:30:30;9.80;99.90
36132;DHT22;22185;48.738;9.324;2022-11-20T13:32:32;9.80;99.90
36132;DHT22;22185;48.738;9.324;2022-11-20T13:34:34;10.00;99.90
36132;DHT22;22185;48.738;9.324;2022-11-20T13:36:49;10.40;99.90
36132;DHT22;22185;48.738;9.324;2022-11-20T13:38:54;10.40;99.90
36132;DHT22;22185;48.738;9.324;2022-11-20T13:41:32;10.60;99.90
36132;DHT22;22185;48.738;9.324;2022-11-20T13:43:46;10.20;99.90
36132;DHT22;22185;48.738;9.324;2022-11-20T13:45:57;10.20;99.90
36132;DHT22;22185;48.738;9.324;2022-11-20T13:48:18;10.40;99.90
36132;DHT22;22185;48.738;9.324;2022-11-20T13:50:38;10.80;99.90
36132;DHT22;22185;48.738;9.324;2022-11-20T13:52:53;11.20;99.90
36132;DHT22;22185;48.738;9.324;2022-11-20T13:55:00;10.70;99.90
36132;DHT22;22185;48.738;9.324;2022-11-20T13:59:11;10.40;99.90
36132;DHT22;22185;48.738;9.324;2022-11-20T14:03:27;10.00;99.90
36132;DHT22;22185;48.738;9.324;2022-11-20T14:06:00;9.90;99.90
36132;DHT22;22185;48.738;9.324;2022-11-20T14:08:04;9.90;99.90
36132;DHT22;22185;48.738;9.324;2022-11-20T14:10:19;9.80;99.90
36132;DHT22;22185;48.738;9.324;2022-11-20T14:12:22;9.80;99.90
36132;DHT22;22185;48.738;9.324;2022-11-20T14:14:25;9.70;99.90
36132;DHT22;22185;48.738;9.324;2022-11-20T14:16:28;9.90;99.90
36132;DHT22;22185;48.738;9.324;2022-11-20T14:18:30;9.90;99.90
36132;DHT22;22185;48.738;9.324;2022-11-20T14:20:32;10.20;99.90
36132;DHT22;22185;48.738;9.324;2022-11-20T14:22:33;9.80;99.90
36132;DHT22;22185;48.738;9.324;2022-11-20T14:24:35;9.50;99.90
36132;DHT22;22185;48.738;9.324;2022-11-20T14:26:37;9.40;99.90